createdAt,value
2022-09-28T05:31:06.729Z,8.70
2022-09-28T05:33:34.083Z,8.70
2022-09-28T05:36:02.052Z,8.70
2022-09-28T05:38:30.173Z,8.80
2022-09-28T05:40:57.584Z,8.80
2022-09-28T05:43:24.920Z,8.80
2022-09-28T05:45:55.684Z,8.80
2022-09-28T05:48:23.573Z,8.80
2022-09-28T05:50:52.477Z,8.90
2022-09-28T05:53:20.061Z,8.90
2022-09-28T05:55:47.407Z,8.80
2022-09-28T05:58:14.831Z,8.90
2022-09-28T06:00:42.762Z,9.00
2022-09-28T06:03:13.632Z,9.00
2022-09-28T06:05:53.376Z,9.10
2022-09-28T06:08:21.289Z,9.10
2022-09-28T06:10:50.048Z,9.10
2022-09-28T06:13:19.155Z,9.10
2022-09-28T06:15:47.302Z,9.20
2022-09-28T06:18:15.111Z,9.20
2022-09-28T06:20:46.056Z,9.20
2022-09-28T06:23:15.299Z,9.20
2022-09-28T06:25:45.824Z,9.20
2022-09-28T06:28:17.011Z,9.20
2022-09-28T06:30:45.154Z,9.30
2022-09-28T06:33:14.522Z,9.30
2022-09-28T06:35:42.568Z,9.20
2022-09-28T06:38:11.462Z,9.20
2022-09-28T06:40:39.598Z,9.20
2022-09-28T06:43:13.536Z,9.20
2022-09-28T06:45:41.829Z,9.20
2022-09-28T06:48:11.578Z,9.20
2022-09-28T06:50:41.564Z,9.10
2022-09-28T06:53:14.194Z,9.00
2022-09-28T06:55:49.424Z,9.10
2022-09-28T06:58:19.804Z,9.20
2022-09-28T07:00:53.944Z,9.10
2022-09-28T07:03:22.625Z,9.20
2022-09-28T07:05:53.892Z,9.20
2022-09-28T07:08:26.135Z,9.30
2022-09-28T07:10:57.169Z,9.20
2022-09-28T07:13:48.500Z,9.30
2022-09-28T07:16:17.469Z,9.20
2022-09-28T07:18:46.479Z,9.20
2022-09-28T07:21:25.807Z,9.30
2022-09-28T07:23:58.677Z,9.40
2022-09-28T07:26:28.910Z,9.30
2022-09-28T07:28:59.641Z,9.30
2022-09-28T07:31:28.044Z,9.40
2022-09-28T07:33:56.486Z,9.50
2022-09-28T07:36:28.458Z,9.50
2022-09-28T07:38:56.109Z,9.60
2022-09-28T07:41:34.672Z,9.60
2022-09-28T07:44:06.580Z,9.70
2022-09-28T07:46:38.556Z,9.70
2022-09-28T07:49:12.477Z,9.70
2022-09-28T07:52:15.663Z,9.70
2022-09-28T07:55:24.702Z,9.70
2022-09-28T07:57:58.926Z,9.70
2022-09-28T08:00:34.220Z,10.30
2022-09-28T08:03:04.158Z,9.60
2022-09-28T08:05:35.924Z,9.60
2022-09-28T08:08:03.702Z,9.60
2022-09-28T08:10:31.757Z,9.50
2022-09-28T08:13:04.766Z,9.50
2022-09-28T08:15:37.442Z,10.10
2022-09-28T08:18:06.409Z,9.50
2022-09-28T08:21:02.245Z,9.60
2022-09-28T08:23:38.531Z,9.50
2022-09-28T08:26:12.094Z,9.50
2022-09-28T08:28:45.246Z,10.70
2022-09-28T08:31:13.188Z,9.60
2022-09-28T08:33:53.104Z,10.40
2022-09-28T08:36:22.083Z,9.70
2022-09-28T08:38:49.777Z,9.70
2022-09-28T08:41:59.357Z,9.70
2022-09-28T08:44:32.106Z,9.80
2022-09-28T08:47:04.060Z,9.90
2022-09-28T08:49:42.280Z,10.20
2022-09-28T08:52:17.999Z,10.20
2022-09-28T08:55:03.704Z,10.40
2022-09-28T08:57:39.204Z,10.50
2022-09-28T09:00:15.087Z,10.50
2022-09-28T09:02:51.248Z,10.50
2022-09-28T09:05:21.442Z,10.60
2022-09-28T09:08:29.197Z,10.50
2022-09-28T09:11:10.396Z,10.40
2022-09-28T09:13:51.948Z,10.50
2022-09-28T09:16:51.241Z,10.60
2022-09-28T09:19:42.049Z,10.70
2022-09-28T09:22:21.664Z,10.80
2022-09-28T09:24:57.111Z,10.90
2022-09-28T09:27:54.773Z,10.80
2022-09-28T09:30:22.693Z,10.80
2022-09-28T09:33:41.039Z,11.00
2022-09-28T09:36:24.200Z,11.20
2022-09-28T09:39:18.331Z,11.30
2022-09-28T09:42:17.946Z,11.80
2022-09-28T09:45:25.637Z,12.40
2022-09-28T09:48:11.247Z,12.70
2022-09-28T09:50:52.794Z,13.10
2022-09-28T09:53:39.438Z,12.90
2022-09-28T09:56:26.159Z,12.90
2022-09-28T09:59:00.331Z,12.20
2022-09-28T10:01:35.605Z,12.80
2022-09-28T10:04:15.254Z,13.40
2022-09-28T10:06:43.691Z,13.10
2022-09-28T10:09:24.048Z,14.30
2022-09-28T10:11:52.093Z,14.70
2022-09-28T10:14:22.270Z,13.70
2022-09-28T10:16:54.367Z,13.30
2022-09-28T10:19:35.915Z,13.10
2022-09-28T10:22:07.808Z,13.10
2022-09-28T10:24:42.997Z,13.10
2022-09-28T10:27:26.169Z,12.50
2022-09-28T10:30:19.047Z,12.50
2022-09-28T10:32:49.718Z,12.30
2022-09-28T10:35:27.967Z,12.20
2022-09-28T10:41:00.880Z,12.20
2022-09-28T10:43:34.628Z,12.80
2022-09-28T10:46:13.505Z,13.20
2022-09-28T10:48:59.619Z,13.40
2022-09-28T10:51:47.573Z,13.60
2022-09-28T10:54:22.166Z,13.90
2022-09-28T10:56:51.595Z,14.40
2022-09-28T11:02:35.418Z,14.70
2022-09-28T11:05:07.878Z,14.70
2022-09-28T11:07:46.623Z,14.90
2022-09-28T11:10:26.583Z,14.50
2022-09-28T11:12:54.978Z,14.30
2022-09-28T11:15:27.330Z,14.20
2022-09-28T11:17:54.897Z,14.20
2022-09-28T11:20:32.904Z,13.90
2022-09-28T11:25:59.805Z,14.00
2022-09-28T11:28:32.778Z,14.20
2022-09-28T11:31:01.450Z,14.20
2022-09-28T11:33:41.218Z,14.00
2022-09-28T11:39:11.224Z,13.70
2022-09-28T11:42:06.613Z,13.70
2022-09-28T11:44:41.404Z,14.00
2022-09-28T11:47:48.752Z,14.00
2022-09-28T11:50:28.499Z,14.40
2022-09-28T11:53:11.882Z,14.40
2022-09-28T11:55:50.405Z,14.30
2022-09-28T11:58:29.483Z,14.30
2022-09-28T12:01:07.742Z,14.30
2022-09-28T12:03:43.079Z,14.30
2022-09-28T12:06:18.307Z,14.10
2022-09-28T12:08:54.227Z,14.20
2022-09-28T12:11:32.604Z,14.30
2022-09-28T12:14:04.585Z,14.30
2022-09-28T12:17:10.976Z,14.20
2022-09-28T12:19:48.524Z,14.40
2022-09-28T12:22:22.988Z,14.60
2022-09-28T12:24:54.685Z,14.70
2022-09-28T12:27:51.487Z,14.90
2022-09-28T12:30:25.241Z,15.10
2022-09-28T12:33:13.216Z,15.00
2022-09-28T12:36:20.427Z,15.00
2022-09-28T12:42:15.174Z,15.10
2022-09-28T12:44:59.458Z,14.90
2022-09-28T12:47:44.416Z,15.10
2022-09-28T12:50:52.640Z,14.60
2022-09-28T12:53:32.241Z,14.30
2022-09-28T12:56:24.916Z,14.20
2022-09-28T12:59:19.058Z,14.10
2022-09-28T13:05:02.439Z,14.00
2022-09-28T13:07:56.410Z,14.10
2022-09-28T13:10:47.894Z,14.00
2022-09-28T13:13:34.454Z,13.90
2022-09-28T13:16:29.375Z,13.80
2022-09-28T13:19:14.005Z,13.80
2022-09-28T13:21:59.163Z,13.70
2022-09-28T13:24:33.082Z,13.70
2022-09-28T13:27:10.341Z,13.70
2022-09-28T13:32:12.813Z,13.70
2022-09-28T13:34:40.459Z,13.50
2022-09-28T13:37:20.897Z,13.70
2022-09-28T13:40:06.304Z,13.60
2022-09-28T13:45:32.419Z,13.70
2022-09-28T13:51:07.405Z,13.70
2022-09-28T13:54:00.613Z,13.90
2022-09-28T13:57:07.525Z,13.90
2022-09-28T13:59:51.890Z,13.80
2022-09-28T14:02:47.504Z,13.90
2022-09-28T14:08:34.708Z,13.80
2022-09-28T14:14:13.863Z,13.70
2022-09-28T14:16:42.812Z,13.80
2022-09-28T14:19:31.695Z,13.70
2022-09-28T14:22:34.806Z,13.60
2022-09-28T14:28:01.836Z,13.40
2022-09-28T14:30:47.735Z,13.50
2022-09-28T14:36:04.950Z,13.20
2022-09-28T14:39:10.225Z,13.20
2022-09-28T14:41:41.079Z,13.20
2022-09-28T14:46:47.881Z,13.00
2022-09-28T14:52:02.714Z,13.10
2022-09-28T14:54:41.888Z,13.30
2022-09-28T14:57:22.597Z,13.30
2022-09-28T14:59:49.848Z,13.40
2022-09-28T15:02:24.882Z,13.20
2022-09-28T15:05:00.124Z,13.30
2022-09-28T15:07:34.306Z,13.20
2022-09-28T15:10:02.695Z,13.00
2022-09-28T15:12:31.225Z,12.90
2022-09-28T15:15:02.336Z,12.90
2022-09-28T15:17:39.730Z,12.90
2022-09-28T15:20:30.400Z,12.80
2022-09-28T15:22:59.903Z,12.70
2022-09-28T15:25:30.091Z,12.70
2022-09-28T15:28:02.323Z,12.70
2022-09-28T15:30:32.228Z,12.70
2022-09-28T15:33:21.386Z,12.60
2022-09-28T15:36:07.354Z,12.60
2022-09-28T15:38:35.872Z,12.60
2022-09-28T15:41:05.092Z,12.40
2022-09-28T15:43:34.130Z,12.40
2022-09-28T15:46:13.552Z,12.40
2022-09-28T15:48:59.575Z,12.30
2022-09-28T15:51:28.389Z,12.30
2022-09-28T15:54:19.427Z,12.20
2022-09-28T15:57:02.858Z,12.20
2022-09-28T15:59:32.254Z,12.10
